createdAt,value
2017-08-23T00:01:59.920Z,17.50
2017-08-23T00:04:28.274Z,17.50
2017-08-23T00:06:56.639Z,17.50
2017-08-23T00:09:25.029Z,17.50
2017-08-23T00:11:53.407Z,17.40
2017-08-23T00:14:21.895Z,17.40
2017-08-23T00:16:50.445Z,17.40
2017-08-23T00:19:18.786Z,17.30
2017-08-23T00:21:47.267Z,17.30
2017-08-23T00:24:15.627Z,17.20
2017-08-23T00:26:43.981Z,17.20
2017-08-23T00:29:12.326Z,17.20
2017-08-23T00:31:40.681Z,17.20
2017-08-23T00:34:09.034Z,17.20
2017-08-23T00:36:37.407Z,17.20
2017-08-23T00:39:05.779Z,17.20
2017-08-23T00:41:34.203Z,17.20
2017-08-23T00:44:02.563Z,17.20
2017-08-23T00:46:31.185Z,17.20
2017-08-23T00:48:59.538Z,17.20
2017-08-23T00:51:27.889Z,17.20
2017-08-23T00:53:56.081Z,17.20
2017-08-23T00:56:24.439Z,17.10
2017-08-23T00:58:52.807Z,17.10
2017-08-23T01:01:21.171Z,17.10
2017-08-23T01:03:49.942Z,17.00
2017-08-23T01:06:18.986Z,17.00
2017-08-23T01:08:47.552Z,17.10
2017-08-23T01:11:15.905Z,17.10
2017-08-23T01:13:44.279Z,17.00
2017-08-23T01:16:12.630Z,17.00
2017-08-23T01:18:41.736Z,17.00
2017-08-23T01:21:10.100Z,16.90
2017-08-23T01:23:38.459Z,16.90
2017-08-23T01:26:06.882Z,16.90
2017-08-23T01:28:35.287Z,16.80
2017-08-23T01:31:03.868Z,16.80
2017-08-23T01:33:32.246Z,16.80
2017-08-23T01:36:00.598Z,16.80
2017-08-23T01:38:28.997Z,16.90
2017-08-23T01:40:57.371Z,16.80
2017-08-23T01:43:25.749Z,16.80
2017-08-23T01:45:54.103Z,16.80
2017-08-23T01:48:22.470Z,16.80
2017-08-23T01:50:50.975Z,16.80
2017-08-23T01:53:19.337Z,16.90
2017-08-23T01:55:47.808Z,16.90
2017-08-23T01:58:16.926Z,16.90
2017-08-23T02:00:45.302Z,16.90
2017-08-23T02:03:13.781Z,16.90
2017-08-23T02:05:42.130Z,16.90
2017-08-23T02:08:10.477Z,16.90
2017-08-23T02:10:38.839Z,16.80
2017-08-23T02:13:07.200Z,16.80
2017-08-23T02:15:35.563Z,16.80
2017-08-23T02:18:03.926Z,16.70
2017-08-23T02:20:32.295Z,16.70
2017-08-23T02:23:00.649Z,16.70
2017-08-23T02:25:29.009Z,16.70
2017-08-23T02:27:57.522Z,16.60
2017-08-23T02:30:25.890Z,16.60
2017-08-23T02:32:54.358Z,16.50
2017-08-23T02:35:22.722Z,16.50
2017-08-23T02:37:51.090Z,16.50
2017-08-23T02:40:19.442Z,16.50
2017-08-23T02:42:48.031Z,16.50
2017-08-23T02:45:16.388Z,16.50
2017-08-23T02:47:44.858Z,16.40
2017-08-23T02:50:13.426Z,16.40
2017-08-23T02:52:41.789Z,16.40
2017-08-23T02:55:10.162Z,16.40
2017-08-23T02:57:38.514Z,16.40
2017-08-23T03:00:06.530Z,16.30
2017-08-23T03:02:34.890Z,16.20
2017-08-23T03:05:03.245Z,16.20
2017-08-23T03:07:31.611Z,16.20
2017-08-23T03:09:59.982Z,16.20
2017-08-23T03:12:28.365Z,16.20
2017-08-23T03:14:56.732Z,16.20
2017-08-23T03:17:25.091Z,16.20
2017-08-23T03:19:53.459Z,16.20
2017-08-23T03:22:21.833Z,16.20
2017-08-23T03:24:50.198Z,16.20
2017-08-23T03:27:18.616Z,16.20
2017-08-23T03:29:46.986Z,16.20
2017-08-23T03:32:15.337Z,16.20
2017-08-23T03:34:43.706Z,16.20
2017-08-23T03:37:12.071Z,16.20
2017-08-23T03:39:40.438Z,16.20
2017-08-23T03:42:08.809Z,16.20
2017-08-23T03:44:37.167Z,16.10
2017-08-23T03:47:05.534Z,16.10
2017-08-23T03:49:33.939Z,16.10
2017-08-23T03:52:02.285Z,16.10
2017-08-23T03:54:30.773Z,16.10
2017-08-23T03:57:03.067Z,16.10
2017-08-23T03:59:31.434Z,16.10
2017-08-23T04:01:59.810Z,16.10
2017-08-23T04:04:28.145Z,16.10
2017-08-23T04:06:57.292Z,16.10
2017-08-23T04:09:25.659Z,16.10
2017-08-23T04:11:53.673Z,16.10
2017-08-23T04:14:22.038Z,16.10
2017-08-23T04:16:50.407Z,16.10
2017-08-23T04:19:18.766Z,16.10
2017-08-23T04:21:47.432Z,16.10
2017-08-23T04:24:15.870Z,16.10
2017-08-23T04:26:44.230Z,16.00
2017-08-23T04:29:12.598Z,16.00
2017-08-23T04:31:40.963Z,16.00
2017-08-23T04:34:09.369Z,16.10
2017-08-23T04:36:37.742Z,16.10
2017-08-23T04:39:06.097Z,16.10
2017-08-23T04:41:34.485Z,16.10
2017-08-23T04:44:02.849Z,16.10
2017-08-23T04:46:31.207Z,16.10
2017-08-23T04:48:59.569Z,16.00
2017-08-23T04:51:27.945Z,16.00
2017-08-23T04:53:56.465Z,16.00
2017-08-23T04:56:24.821Z,16.00
2017-08-23T04:58:53.193Z,16.00
2017-08-23T05:01:22.221Z,16.00
2017-08-23T05:03:50.574Z,16.00
2017-08-23T05:06:18.943Z,16.00
2017-08-23T05:08:47.316Z,16.00
2017-08-23T05:11:15.673Z,16.00
2017-08-23T05:13:44.246Z,16.10
2017-08-23T05:16:12.622Z,16.10
2017-08-23T05:18:40.966Z,16.10
2017-08-23T05:21:10.098Z,16.20
2017-08-23T05:23:38.470Z,16.20
2017-08-23T05:26:06.905Z,16.20
2017-08-23T05:28:36.519Z,16.30
2017-08-23T05:31:04.862Z,16.30
2017-08-23T05:33:33.405Z,16.40
2017-08-23T05:36:01.765Z,16.50
2017-08-23T05:38:30.155Z,16.50
2017-08-23T05:40:58.520Z,16.60
2017-08-23T05:43:26.883Z,16.60
2017-08-23T05:45:55.815Z,16.60
2017-08-23T05:48:24.274Z,16.60
2017-08-23T05:50:52.654Z,16.60
2017-08-23T05:53:21.517Z,16.70
2017-08-23T05:55:49.891Z,16.70
2017-08-23T05:58:18.250Z,16.70
2017-08-23T06:00:46.996Z,16.70
2017-08-23T06:03:15.450Z,16.70
2017-08-23T06:05:43.806Z,16.80
2017-08-23T06:08:12.301Z,16.80
2017-08-23T06:10:41.498Z,16.80
2017-08-23T06:13:09.874Z,16.80
2017-08-23T06:15:38.308Z,16.90
2017-08-23T06:18:06.667Z,16.90
2017-08-23T06:20:35.024Z,17.00
2017-08-23T06:23:03.433Z,17.00
2017-08-23T06:25:31.781Z,17.00
2017-08-23T06:28:00.140Z,17.00
2017-08-23T06:30:28.514Z,17.10
2017-08-23T06:32:56.884Z,17.10
2017-08-23T06:35:25.235Z,17.20
2017-08-23T06:37:54.350Z,17.20
2017-08-23T06:40:22.736Z,17.20
2017-08-23T06:42:51.105Z,17.30
2017-08-23T06:45:19.458Z,17.40
2017-08-23T06:47:47.854Z,17.40
2017-08-23T06:50:16.213Z,17.40
2017-08-23T06:52:44.575Z,17.40
2017-08-23T06:55:12.978Z,17.50
2017-08-23T06:57:41.328Z,17.50
2017-08-23T07:00:10.447Z,17.60
2017-08-23T07:02:38.810Z,17.60
2017-08-23T07:05:07.182Z,17.60
2017-08-23T07:07:35.576Z,17.70
2017-08-23T07:10:03.938Z,17.80
2017-08-23T07:12:32.311Z,17.80
2017-08-23T07:15:01.465Z,17.90
2017-08-23T07:17:29.818Z,17.90
2017-08-23T07:19:58.183Z,17.90
2017-08-23T07:22:26.605Z,18.00
2017-08-23T07:24:55.074Z,18.00
2017-08-23T07:27:23.437Z,18.10
2017-08-23T07:29:51.798Z,18.20
2017-08-23T07:32:20.364Z,18.20
2017-08-23T07:34:48.715Z,18.30
2017-08-23T07:37:17.078Z,18.30
2017-08-23T07:39:46.407Z,18.50
2017-08-23T07:42:14.755Z,18.50
2017-08-23T07:44:43.113Z,18.50
2017-08-23T07:47:11.539Z,18.50
2017-08-23T07:49:39.919Z,18.60
2017-08-23T07:52:08.962Z,18.60
2017-08-23T07:54:37.471Z,18.60
2017-08-23T07:57:05.814Z,18.60
2017-08-23T07:59:34.173Z,18.60
2017-08-23T08:02:02.540Z,18.70
2017-08-23T08:04:30.900Z,18.70
2017-08-23T08:06:59.265Z,18.80
2017-08-23T08:09:27.633Z,18.80
2017-08-23T08:11:55.994Z,18.80
2017-08-23T08:14:24.387Z,18.90
2017-08-23T08:16:52.747Z,18.90
2017-08-23T08:19:21.123Z,19.00
2017-08-23T08:21:49.638Z,19.10
2017-08-23T08:24:18.018Z,19.10
2017-08-23T08:26:46.378Z,19.20
2017-08-23T08:29:14.772Z,19.20
2017-08-23T08:31:43.142Z,19.30
2017-08-23T08:34:16.073Z,19.40
2017-08-23T08:36:44.436Z,19.40
2017-08-23T08:39:12.797Z,19.40
2017-08-23T08:41:41.176Z,19.40
2017-08-23T08:44:09.713Z,19.50
2017-08-23T08:46:38.072Z,19.50
2017-08-23T08:49:06.414Z,19.60
2017-08-23T08:51:34.839Z,19.70
2017-08-23T08:54:03.191Z,19.80
2017-08-23T08:56:31.567Z,19.90
2017-08-23T08:59:00.700Z,20.10
2017-08-23T09:01:29.064Z,20.10
2017-08-23T09:03:57.626Z,20.20
2017-08-23T09:06:25.988Z,20.30
2017-08-23T09:08:55.039Z,20.40
2017-08-23T09:11:23.687Z,20.50
2017-08-23T09:13:52.369Z,20.60
2017-08-23T09:16:20.719Z,20.70
2017-08-23T09:18:49.076Z,20.80
2017-08-23T09:21:17.497Z,20.90
2017-08-23T09:23:45.850Z,21.00
2017-08-23T09:26:14.030Z,21.10
2017-08-23T09:28:42.422Z,21.20
2017-08-23T09:31:10.778Z,21.30
2017-08-23T09:33:39.144Z,21.40
2017-08-23T09:36:07.506Z,21.50
2017-08-23T09:38:35.850Z,21.50
2017-08-23T09:41:04.913Z,21.50
2017-08-23T09:43:33.492Z,21.60
2017-08-23T09:46:01.872Z,21.80
2017-08-23T09:48:30.218Z,21.90
2017-08-23T09:50:58.576Z,21.90
2017-08-23T09:53:26.942Z,22.00
2017-08-23T09:55:55.301Z,22.10
2017-08-23T09:58:23.667Z,22.20
2017-08-23T10:00:52.031Z,22.30
2017-08-23T10:03:20.532Z,22.30
2017-08-23T10:05:49.183Z,22.50
2017-08-23T10:08:17.526Z,22.50
2017-08-23T10:10:45.886Z,22.50
2017-08-23T10:13:14.308Z,22.60
2017-08-23T10:15:42.789Z,22.70
2017-08-23T10:18:11.138Z,22.70
2017-08-23T10:20:39.505Z,22.90
2017-08-23T10:23:07.857Z,22.90
2017-08-23T10:25:36.205Z,22.90
2017-08-23T10:28:04.644Z,23.00
2017-08-23T10:30:33.012Z,23.00
2017-08-23T10:33:01.355Z,23.00
2017-08-23T10:35:29.715Z,23.10
2017-08-23T10:37:58.075Z,23.10
2017-08-23T10:40:26.430Z,23.20
2017-08-23T10:42:54.841Z,23.30
2017-08-23T10:45:23.195Z,23.40
2017-08-23T10:47:51.672Z,23.50
2017-08-23T10:50:20.034Z,23.50
2017-08-23T10:52:48.382Z,23.50
2017-08-23T10:55:16.737Z,23.60
2017-08-23T10:57:45.091Z,23.70
2017-08-23T11:00:13.449Z,23.70
2017-08-23T11:02:41.820Z,23.80
2017-08-23T11:05:09.983Z,23.80
2017-08-23T11:07:38.341Z,23.80
2017-08-23T11:10:06.761Z,23.90
2017-08-23T11:12:35.302Z,23.90
2017-08-23T11:15:04.628Z,24.10
2017-08-23T11:17:32.979Z,24.10
2017-08-23T11:20:01.340Z,24.20
2017-08-23T11:22:29.699Z,24.30
2017-08-23T11:24:58.045Z,24.50
2017-08-23T11:27:26.418Z,24.60
2017-08-23T11:29:55.043Z,24.80
2017-08-23T11:32:23.386Z,24.90
2017-08-23T11:34:52.452Z,25.00
2017-08-23T11:37:20.807Z,25.10
2017-08-23T11:39:49.252Z,25.10
2017-08-23T11:42:17.614Z,25.10
2017-08-23T11:44:45.978Z,25.30
2017-08-23T11:47:14.336Z,25.30
2017-08-23T11:49:46.703Z,25.30
2017-08-23T11:52:15.186Z,25.40
2017-08-23T11:54:43.586Z,25.30
2017-08-23T11:57:11.965Z,25.30
2017-08-23T11:59:40.324Z,25.30
2017-08-23T12:02:08.744Z,25.40
2017-08-23T12:04:37.118Z,25.50
2017-08-23T12:07:05.479Z,25.60
2017-08-23T12:09:33.911Z,25.70
2017-08-23T12:12:02.253Z,25.80
2017-08-23T12:14:30.609Z,25.80
2017-08-23T12:16:58.978Z,25.80
2017-08-23T12:19:27.343Z,25.90
2017-08-23T12:21:55.341Z,26.00
2017-08-23T12:24:24.477Z,26.20
2017-08-23T12:26:52.836Z,26.10
2017-08-23T12:29:21.430Z,26.20
2017-08-23T12:31:49.805Z,26.30
2017-08-23T12:34:18.179Z,26.30
2017-08-23T12:39:24.381Z,26.40
2017-08-23T12:41:52.734Z,26.40
2017-08-23T12:44:21.206Z,26.50
2017-08-23T12:46:49.850Z,26.60
2017-08-23T12:49:18.203Z,26.60
2017-08-23T12:51:46.555Z,26.70
2017-08-23T12:54:15.019Z,26.70
2017-08-23T12:56:43.434Z,26.70
2017-08-23T12:59:11.798Z,26.80
2017-08-23T13:01:40.155Z,26.80
2017-08-23T13:04:08.519Z,26.90
2017-08-23T13:06:36.870Z,27.00
2017-08-23T13:09:04.661Z,27.00
2017-08-23T13:11:33.086Z,27.10
2017-08-23T13:14:01.442Z,27.20
2017-08-23T13:16:29.801Z,27.40
2017-08-23T13:18:58.163Z,27.50
2017-08-23T13:21:26.764Z,27.60
2017-08-23T13:23:55.130Z,27.80
2017-08-23T13:26:23.490Z,27.80
2017-08-23T13:28:51.975Z,27.90
2017-08-23T13:31:20.321Z,27.90
2017-08-23T13:33:48.722Z,27.80
2017-08-23T13:36:17.154Z,27.80
2017-08-23T13:38:45.624Z,27.90
2017-08-23T13:41:13.999Z,27.90
2017-08-23T13:43:42.159Z,28.00
2017-08-23T13:46:10.514Z,27.90
2017-08-23T13:48:38.868Z,28.00
2017-08-23T13:51:07.232Z,28.00
2017-08-23T13:53:35.602Z,28.00
2017-08-23T13:56:03.959Z,28.10
2017-08-23T13:58:32.484Z,28.20
2017-08-23T14:01:00.855Z,28.30
2017-08-23T14:03:29.195Z,28.40
2017-08-23T14:05:57.608Z,28.50
2017-08-23T14:08:25.999Z,28.40
2017-08-23T14:10:54.412Z,28.40
2017-08-23T14:13:22.786Z,28.40
2017-08-23T14:15:51.139Z,28.50
2017-08-23T14:18:19.499Z,28.50
2017-08-23T14:20:47.871Z,28.40
2017-08-23T14:23:16.285Z,28.30
2017-08-23T14:25:44.613Z,28.40
2017-08-23T14:28:13.654Z,28.40
2017-08-23T14:30:42.028Z,28.40
2017-08-23T14:33:10.384Z,28.40
2017-08-23T14:35:38.769Z,28.50
2017-08-23T14:38:07.137Z,28.60
2017-08-23T14:40:35.510Z,28.60
2017-08-23T14:43:03.874Z,28.80
2017-08-23T14:45:32.452Z,28.80
2017-08-23T14:48:00.917Z,28.90
2017-08-23T14:50:29.267Z,28.90
2017-08-23T14:52:57.875Z,29.00
2017-08-23T14:55:26.228Z,29.00
2017-08-23T14:57:54.728Z,28.90
2017-08-23T15:00:23.076Z,28.90
2017-08-23T15:02:51.443Z,28.90
2017-08-23T15:05:20.776Z,29.00
2017-08-23T15:07:49.201Z,29.00
2017-08-23T15:10:17.555Z,29.00
2017-08-23T15:12:45.914Z,29.00
2017-08-23T15:15:14.493Z,29.00
2017-08-23T15:17:42.856Z,28.90
2017-08-23T15:20:11.202Z,29.00
2017-08-23T15:22:39.570Z,29.00
2017-08-23T15:25:07.944Z,29.00
2017-08-23T15:27:36.980Z,29.00
2017-08-23T15:30:05.340Z,29.00
2017-08-23T15:32:34.458Z,29.10
2017-08-23T15:35:03.090Z,29.00
2017-08-23T15:37:31.450Z,29.00
2017-08-23T15:39:59.810Z,29.00
2017-08-23T15:42:28.177Z,29.00
2017-08-23T15:44:56.537Z,29.00
2017-08-23T15:47:24.887Z,29.10
2017-08-23T15:49:53.258Z,29.10
2017-08-23T15:52:21.631Z,29.20
2017-08-23T15:54:50.086Z,29.20
2017-08-23T15:57:18.467Z,29.20
2017-08-23T15:59:46.818Z,29.20
2017-08-23T16:02:15.362Z,29.10
2017-08-23T16:04:43.720Z,29.00
2017-08-23T16:07:12.078Z,28.90
2017-08-23T16:09:40.467Z,28.80
2017-08-23T16:12:08.866Z,28.70
2017-08-23T16:14:37.243Z,28.50
2017-08-23T16:17:05.587Z,28.40
2017-08-23T16:19:33.943Z,28.30
2017-08-23T16:22:02.525Z,28.20
2017-08-23T16:24:30.884Z,28.10
2017-08-23T16:26:59.246Z,28.00
2017-08-23T16:29:27.609Z,28.00
2017-08-23T16:31:55.986Z,27.90
2017-08-23T16:34:24.555Z,27.80
2017-08-23T16:36:52.985Z,27.80
2017-08-23T16:39:21.342Z,27.80
2017-08-23T16:41:49.916Z,27.70
2017-08-23T16:44:18.270Z,27.70
2017-08-23T16:46:46.649Z,27.60
2017-08-23T16:49:15.002Z,27.50
2017-08-23T16:51:43.381Z,27.40
2017-08-23T16:54:11.873Z,27.30
2017-08-23T16:56:40.231Z,27.20
2017-08-23T16:59:08.581Z,27.20
2017-08-23T17:01:36.938Z,27.20
2017-08-23T17:04:05.303Z,27.10
2017-08-23T17:06:33.672Z,27.10
2017-08-23T17:09:02.433Z,27.10
2017-08-23T17:11:30.806Z,27.00
2017-08-23T17:13:59.154Z,27.00
2017-08-23T17:16:27.607Z,27.10
2017-08-23T17:18:55.966Z,27.10
2017-08-23T17:21:24.519Z,27.10
2017-08-23T17:23:52.893Z,27.10
2017-08-23T17:26:21.371Z,27.10
2017-08-23T17:28:49.798Z,27.10
2017-08-23T17:31:18.162Z,27.00
2017-08-23T17:33:46.524Z,27.00
2017-08-23T17:36:15.092Z,26.90
2017-08-23T17:38:43.554Z,26.90
2017-08-23T17:41:11.907Z,26.80
2017-08-23T17:43:40.298Z,26.70
2017-08-23T17:46:08.751Z,26.70
2017-08-23T17:48:37.105Z,26.70
2017-08-23T17:51:05.469Z,26.60
2017-08-23T17:53:34.114Z,26.50
2017-08-23T17:56:02.550Z,26.40
2017-08-23T17:58:30.921Z,26.30
2017-08-23T18:00:59.291Z,26.20
2017-08-23T18:03:27.726Z,26.00
2017-08-23T18:05:56.110Z,25.90
2017-08-23T18:08:24.478Z,25.70
2017-08-23T18:10:53.055Z,25.60
2017-08-23T18:13:21.635Z,25.50
2017-08-23T18:15:49.990Z,25.40
2017-08-23T18:18:18.384Z,25.30
2017-08-23T18:20:46.770Z,25.20
2017-08-23T18:23:15.170Z,25.10
2017-08-23T18:25:43.529Z,25.00
2017-08-23T18:28:11.897Z,24.90
2017-08-23T18:30:40.299Z,24.80
2017-08-23T18:33:08.666Z,24.80
2017-08-23T18:35:37.022Z,24.70
2017-08-23T18:38:05.412Z,24.60
2017-08-23T18:40:34.279Z,24.60
2017-08-23T18:43:02.479Z,24.50
2017-08-23T18:45:30.874Z,24.40
2017-08-23T18:47:59.231Z,24.30
2017-08-23T18:50:27.576Z,24.30
2017-08-23T18:52:56.056Z,24.20
2017-08-23T18:55:24.431Z,24.20
2017-08-23T18:57:53.138Z,24.10
2017-08-23T19:00:21.528Z,24.10
2017-08-23T19:02:49.906Z,24.00
2017-08-23T19:05:18.271Z,23.90
2017-08-23T19:07:46.632Z,23.90
2017-08-23T19:10:15.008Z,23.90
2017-08-23T19:12:43.428Z,23.90
2017-08-23T19:15:11.786Z,23.90
2017-08-23T19:17:40.153Z,23.80
2017-08-23T19:20:08.508Z,23.80
2017-08-23T19:22:36.875Z,23.80
2017-08-23T19:25:05.234Z,23.70
2017-08-23T19:27:33.684Z,23.70
2017-08-23T19:30:02.040Z,23.60
2017-08-23T19:32:30.671Z,23.60
2017-08-23T19:34:59.066Z,23.50
2017-08-23T19:37:27.741Z,23.50
2017-08-23T19:39:56.097Z,23.50
2017-08-23T19:42:24.490Z,23.40
2017-08-23T19:44:53.073Z,23.40
2017-08-23T19:47:21.550Z,23.40
2017-08-23T19:49:49.907Z,23.40
2017-08-23T19:52:18.267Z,23.40
2017-08-23T19:54:46.644Z,23.40
2017-08-23T19:57:15.975Z,23.30
2017-08-23T19:59:44.336Z,23.30
2017-08-23T20:02:12.677Z,23.30
2017-08-23T20:04:41.102Z,23.30
2017-08-23T20:07:11.833Z,23.30
2017-08-23T20:09:40.275Z,23.30
2017-08-23T20:12:08.639Z,23.20
2017-08-23T20:14:37.074Z,23.20
2017-08-23T20:17:05.645Z,23.20
2017-08-23T20:19:34.019Z,23.10
2017-08-23T20:22:02.360Z,23.10
2017-08-23T20:24:31.698Z,23.00
2017-08-23T20:27:00.375Z,23.00
2017-08-23T20:29:28.729Z,23.00
2017-08-23T20:31:57.122Z,23.00
2017-08-23T20:34:25.483Z,22.90
2017-08-23T20:36:53.857Z,22.90
2017-08-23T20:39:22.219Z,22.90
2017-08-23T20:41:50.684Z,22.90
2017-08-23T20:44:19.311Z,22.80
2017-08-23T20:46:47.655Z,22.80
2017-08-23T20:49:15.940Z,22.80
2017-08-23T20:51:44.340Z,22.80
2017-08-23T20:54:12.698Z,22.70
2017-08-23T20:56:41.197Z,22.70
2017-08-23T20:59:09.568Z,22.60
2017-08-23T21:01:37.953Z,22.60
2017-08-23T21:04:06.306Z,22.60
2017-08-23T21:06:34.676Z,22.50
2017-08-23T21:09:03.068Z,22.60
2017-08-23T21:11:31.416Z,22.50
2017-08-23T21:13:59.950Z,22.50
2017-08-23T21:16:28.313Z,22.50
2017-08-23T21:18:57.360Z,22.40
2017-08-23T21:21:25.749Z,22.40
2017-08-23T21:23:55.812Z,22.40
2017-08-23T21:26:24.180Z,22.30
2017-08-23T21:28:52.641Z,22.30
2017-08-23T21:31:21.174Z,22.30
2017-08-23T21:33:49.591Z,22.30
2017-08-23T21:36:17.967Z,22.30
2017-08-23T21:38:46.319Z,22.30
2017-08-23T21:41:14.720Z,22.30
2017-08-23T21:43:43.198Z,22.20
2017-08-23T21:46:11.571Z,22.20
2017-08-23T21:48:39.936Z,22.10
2017-08-23T21:51:08.447Z,22.10
2017-08-23T21:53:36.810Z,22.10
2017-08-23T21:56:05.281Z,22.00
2017-08-23T21:58:33.633Z,22.00
2017-08-23T22:01:02.134Z,22.00
2017-08-23T22:03:30.133Z,21.90
2017-08-23T22:05:58.483Z,22.00
2017-08-23T22:08:27.782Z,22.00
2017-08-23T22:10:56.127Z,21.90
2017-08-23T22:13:25.254Z,22.00
2017-08-23T22:15:53.822Z,22.00
2017-08-23T22:18:22.947Z,22.10
2017-08-23T22:20:51.322Z,22.00
2017-08-23T22:23:19.870Z,22.10
2017-08-23T22:25:48.221Z,22.10
2017-08-23T22:28:17.338Z,22.20
2017-08-23T22:30:45.706Z,22.20
2017-08-23T22:33:14.063Z,22.20
2017-08-23T22:35:42.426Z,22.20
2017-08-23T22:38:10.782Z,22.10
2017-08-23T22:40:39.345Z,22.10
2017-08-23T22:43:07.900Z,22.10
2017-08-23T22:45:36.275Z,22.10
2017-08-23T22:48:04.627Z,22.00
2017-08-23T22:50:33.093Z,22.00
2017-08-23T22:53:01.483Z,21.90
2017-08-23T22:55:30.703Z,21.90
2017-08-23T22:57:59.063Z,21.80
2017-08-23T23:00:28.375Z,21.70
2017-08-23T23:02:56.749Z,21.70
2017-08-23T23:05:25.094Z,21.70
2017-08-23T23:07:53.454Z,21.60
2017-08-23T23:10:21.805Z,21.60
2017-08-23T23:12:50.456Z,21.60
2017-08-23T23:15:18.812Z,21.50
2017-08-23T23:17:47.951Z,21.40
2017-08-23T23:20:16.505Z,21.40
2017-08-23T23:22:44.865Z,21.40
2017-08-23T23:25:13.360Z,21.40
2017-08-23T23:27:41.735Z,21.40
2017-08-23T23:30:10.081Z,21.40
2017-08-23T23:32:38.442Z,21.40
2017-08-23T23:35:06.477Z,21.40
2017-08-23T23:37:34.830Z,21.40
2017-08-23T23:40:03.205Z,21.30
2017-08-23T23:42:31.559Z,21.30
2017-08-23T23:44:59.958Z,21.30
2017-08-23T23:47:28.298Z,21.20
2017-08-23T23:49:57.422Z,21.20
2017-08-23T23:52:25.798Z,21.20
2017-08-23T23:54:54.163Z,21.20
2017-08-23T23:57:22.518Z,21.20
2017-08-23T23:59:50.888Z,21.20
